sensor_id;sensor_type;location;lat;lon;timestamp;temperature;humidity
7648;DHT22;3866;48.020;11.720;2024-03-17T00:00:06;6.90;99.90
7648;DHT22;3866;48.020;11.720;2024-03-17T00:02:32;6.90;99.90
7648;DHT22;3866;48.020;11.720;2024-03-17T00:04:59;6.90;99.90
7648;DHT22;3866;48.020;11.720;2024-03-17T00:07:26;6.90;99.90
7648;DHT22;3866;48.020;11.720;2024-03-17T00:09:53;6.90;99.90
7648;DHT22;3866;48.020;11.720;2024-03-17T00:12:19;6.90;99.90
7648;DHT22;3866;48.020;11.720;2024-03-17T00:14:46;7.00;99.90
7648;DHT22;3866;48.020;11.720;2024-03-17T00:17:12;7.00;99.90
7648;DHT22;3866;48.020;11.720;2024-03-17T00:19:41;7.00;99.90
7648;DHT22;3866;48.020;11.720;2024-03-17T00:22:06;6.90;99.90
7648;DHT22;3866;48.020;11.720;2024-03-17T00:24:35;7.00;99.90
7648;DHT22;3866;48.020;11.720;2024-03-17T00:27:02;6.90;99.90
7648;DHT22;3866;48.020;11.720;2024-03-17T00:29:28;6.90;99.90
7648;DHT22;3866;48.020;11.720;2024-03-17T00:31:55;6.90;99.90
7648;DHT22;3866;48.020;11.720;2024-03-17T00:34:22;7.00;99.90
7648;DHT22;3866;48.020;11.720;2024-03-17T00:36:49;6.90;99.90
7648;DHT22;3866;48.020;11.720;2024-03-17T00:39:14;7.00;99.90
7648;DHT22;3866;48.020;11.720;2024-03-17T00:41:43;7.00;99.90
7648;DHT22;3866;48.020;11.720;2024-03-17T00:44:09;6.90;99.90
7648;DHT22;3866;48.020;11.720;2024-03-17T00:46:36;6.90;99.90
7648;DHT22;3866;48.020;11.720;2024-03-17T00:49:02;6.90;99.90
7648;DHT22;3866;48.020;11.720;2024-03-17T00:51:31;6.90;99.90
7648;DHT22;3866;48.020;11.720;2024-03-17T00:53:57;6.90;99.90
7648;DHT22;3866;48.020;11.720;2024-03-17T00:56:24;6.90;99.90
7648;DHT22;3866;48.020;11.720;2024-03-17T00:58:51;6.90;99.90
7648;DHT22;3866;48.020;11.720;2024-03-17T01:01:18;6.90;99.90
7648;DHT22;3866;48.020;11.720;2024-03-17T01:03:45;6.90;99.90
7648;DHT22;3866;48.020;11.720;2024-03-17T01:06:11;6.90;99.90
7648;DHT22;3866;48.020;11.720;2024-03-17T01:08:37;7.00;99.90
7648;DHT22;3866;48.020;11.720;2024-03-17T01:11:04;6.90;99.90
7648;DHT22;3866;48.020;11.720;2024-03-17T01:13:34;7.00;99.90
7648;DHT22;3866;48.020;11.720;2024-03-17T01:16:02;7.00;99.90
7648;DHT22;3866;48.020;11.720;2024-03-17T01:18:29;7.00;99.90
7648;DHT22;3866;48.020;11.720;2024-03-17T01:20:56;7.10;99.90
7648;DHT22;3866;48.020;11.720;2024-03-17T01:23:23;7.20;99.90
7648;DHT22;3866;48.020;11.720;2024-03-17T01:25:49;7.10;99.90
7648;DHT22;3866;48.020;11.720;2024-03-17T01:28:16;7.00;99.90
7648;DHT22;3866;48.020;11.720;2024-03-17T01:30:42;7.00;99.90
7648;DHT22;3866;48.020;11.720;2024-03-17T01:33:10;7.00;99.90
7648;DHT22;3866;48.020;11.720;2024-03-17T01:35:37;7.00;99.90
7648;DHT22;3866;48.020;11.720;2024-03-17T01:38:04;7.00;99.90
7648;DHT22;3866;48.020;11.720;2024-03-17T01:40:30;6.90;99.90
7648;DHT22;3866;48.020;11.720;2024-03-17T01:42:57;7.10;99.90
7648;DHT22;3866;48.020;11.720;2024-03-17T01:45:28;6.90;99.90
7648;DHT22;3866;48.020;11.720;2024-03-17T01:47:56;6.90;99.90
7648;DHT22;3866;48.020;11.720;2024-03-17T01:50:25;6.80;99.90
7648;DHT22;3866;48.020;11.720;2024-03-17T01:52:54;6.90;99.90
7648;DHT22;3866;48.020;11.720;2024-03-17T01:55:22;6.90;99.90
7648;DHT22;3866;48.020;11.720;2024-03-17T01:57:50;6.70;99.90
7648;DHT22;3866;48.020;11.720;2024-03-17T02:00:17;6.60;99.90
7648;DHT22;3866;48.020;11.720;2024-03-17T02:02:44;6.60;99.90
7648;DHT22;3866;48.020;11.720;2024-03-17T02:05:10;6.50;99.90
7648;DHT22;3866;48.020;11.720;2024-03-17T02:07:38;6.50;99.90
7648;DHT22;3866;48.020;11.720;2024-03-17T02:10:05;6.50;99.90
7648;DHT22;3866;48.020;11.720;2024-03-17T02:12:34;6.50;99.90
7648;DHT22;3866;48.020;11.720;2024-03-17T02:15:01;6.70;99.90
7648;DHT22;3866;48.020;11.720;2024-03-17T02:17:31;6.60;99.90
7648;DHT22;3866;48.020;11.720;2024-03-17T02:19:57;6.50;99.90
7648;DHT22;3866;48.020;11.720;2024-03-17T02:22:25;6.40;99.90
7648;DHT22;3866;48.020;11.720;2024-03-17T02:24:51;6.40;99.90
7648;DHT22;3866;48.020;11.720;2024-03-17T02:27:18;6.30;99.90
7648;DHT22;3866;48.020;11.720;2024-03-17T02:29:44;6.30;99.90
7648;DHT22;3866;48.020;11.720;2024-03-17T02:32:11;6.20;99.90
7648;DHT22;3866;48.020;11.720;2024-03-17T02:34:38;6.20;99.90
7648;DHT22;3866;48.020;11.720;2024-03-17T02:37:05;6.30;99.90
7648;DHT22;3866;48.020;11.720;2024-03-17T02:39:34;6.30;99.90
7648;DHT22;3866;48.020;11.720;2024-03-17T02:42:02;6.30;99.90
7648;DHT22;3866;48.020;11.720;2024-03-17T02:44:29;6.40;99.90
7648;DHT22;3866;48.020;11.720;2024-03-17T02:46:56;6.40;99.90
7648;DHT22;3866;48.020;11.720;2024-03-17T02:49:23;6.40;99.90
7648;DHT22;3866;48.020;11.720;2024-03-17T02:51:50;6.40;99.90
7648;DHT22;3866;48.020;11.720;2024-03-17T02:54:17;6.40;99.90
7648;DHT22;3866;48.020;11.720;2024-03-17T02:56:45;6.40;99.90
7648;DHT22;3866;48.020;11.720;2024-03-17T02:59:12;6.40;99.90
7648;DHT22;3866;48.020;11.720;2024-03-17T03:01:39;6.30;99.90
7648;DHT22;3866;48.020;11.720;2024-03-17T03:04:06;6.40;99.90
7648;DHT22;3866;48.020;11.720;2024-03-17T03:06:33;6.50;99.90
7648;DHT22;3866;48.020;11.720;2024-03-17T03:09:00;6.50;99.90
7648;DHT22;3866;48.020;11.720;2024-03-17T03:11:27;6.60;99.90
7648;DHT22;3866;48.020;11.720;2024-03-17T03:13:55;6.60;99.90
7648;DHT22;3866;48.020;11.720;2024-03-17T03:16:22;6.40;99.90
7648;DHT22;3866;48.020;11.720;2024-03-17T03:18:50;6.40;99.90
7648;DHT22;3866;48.020;11.720;2024-03-17T03:21:17;6.30;99.90
7648;DHT22;3866;48.020;11.720;2024-03-17T03:23:44;6.20;99.90
7648;DHT22;3866;48.020;11.720;2024-03-17T03:26:12;6.10;99.90
7648;DHT22;3866;48.020;11.720;2024-03-17T03:28:39;6.20;99.90
7648;DHT22;3866;48.020;11.720;2024-03-17T03:31:10;6.20;99.90
7648;DHT22;3866;48.020;11.720;2024-03-17T03:33:39;6.40;99.90
7648;DHT22;3866;48.020;11.720;2024-03-17T03:36:10;6.30;99.90
7648;DHT22;3866;48.020;11.720;2024-03-17T03:38:37;6.20;99.90
7648;DHT22;3866;48.020;11.720;2024-03-17T03:41:08;6.10;99.90
7648;DHT22;3866;48.020;11.720;2024-03-17T03:43:35;6.00;99.90
7648;DHT22;3866;48.020;11.720;2024-03-17T03:46:04;5.90;99.90
7648;DHT22;3866;48.020;11.720;2024-03-17T03:48:33;5.90;99.90
7648;DHT22;3866;48.020;11.720;2024-03-17T03:51:03;5.90;99.90
7648;DHT22;3866;48.020;11.720;2024-03-17T03:53:31;5.90;99.90
7648;DHT22;3866;48.020;11.720;2024-03-17T03:55:58;5.90;99.90
7648;DHT22;3866;48.020;11.720;2024-03-17T03:58:27;5.90;99.90
7648;DHT22;3866;48.020;11.720;2024-03-17T04:00:54;5.90;99.90
7648;DHT22;3866;48.020;11.720;2024-03-17T04:03:21;5.90;99.90
7648;DHT22;3866;48.020;11.720;2024-03-17T04:05:50;5.90;99.90
7648;DHT22;3866;48.020;11.720;2024-03-17T04:08:19;5.90;99.90
7648;DHT22;3866;48.020;11.720;2024-03-17T04:10:49;5.90;99.90
7648;DHT22;3866;48.020;11.720;2024-03-17T04:13:17;5.90;99.90
7648;DHT22;3866;48.020;11.720;2024-03-17T04:15:44;5.90;99.90
7648;DHT22;3866;48.020;11.720;2024-03-17T04:18:11;5.90;99.90
7648;DHT22;3866;48.020;11.720;2024-03-17T04:20:40;6.20;99.90
7648;DHT22;3866;48.020;11.720;2024-03-17T04:23:08;6.10;99.90
7648;DHT22;3866;48.020;11.720;2024-03-17T04:25:35;6.20;99.90
7648;DHT22;3866;48.020;11.720;2024-03-17T04:28:03;6.10;99.90
7648;DHT22;3866;48.020;11.720;2024-03-17T04:30:30;6.10;99.90
7648;DHT22;3866;48.020;11.720;2024-03-17T04:32:58;6.10;99.90
7648;DHT22;3866;48.020;11.720;2024-03-17T04:35:25;6.00;99.90
7648;DHT22;3866;48.020;11.720;2024-03-17T04:37:52;5.90;99.90
7648;DHT22;3866;48.020;11.720;2024-03-17T04:40:20;5.90;99.90
7648;DHT22;3866;48.020;11.720;2024-03-17T04:42:48;5.80;99.90
7648;DHT22;3866;48.020;11.720;2024-03-17T04:45:15;5.80;99.90
7648;DHT22;3866;48.020;11.720;2024-03-17T04:47:42;5.70;99.90
7648;DHT22;3866;48.020;11.720;2024-03-17T04:50:09;5.70;99.90
7648;DHT22;3866;48.020;11.720;2024-03-17T04:52:38;5.60;99.90
7648;DHT22;3866;48.020;11.720;2024-03-17T04:55:05;5.60;99.90
7648;DHT22;3866;48.020;11.720;2024-03-17T04:57:33;5.70;99.90
7648;DHT22;3866;48.020;11.720;2024-03-17T05:00:01;5.70;99.90
7648;DHT22;3866;48.020;11.720;2024-03-17T05:02:31;5.70;99.90
7648;DHT22;3866;48.020;11.720;2024-03-17T05:04:58;5.70;99.90
7648;DHT22;3866;48.020;11.720;2024-03-17T05:07:25;5.70;99.90
7648;DHT22;3866;48.020;11.720;2024-03-17T05:09:52;5.80;99.90
7648;DHT22;3866;48.020;11.720;2024-03-17T05:12:20;5.70;99.90
7648;DHT22;3866;48.020;11.720;2024-03-17T05:14:49;5.70;99.90
7648;DHT22;3866;48.020;11.720;2024-03-17T05:17:15;5.60;99.90
7648;DHT22;3866;48.020;11.720;2024-03-17T05:19:42;5.60;99.90
7648;DHT22;3866;48.020;11.720;2024-03-17T05:22:09;5.60;99.90
7648;DHT22;3866;48.020;11.720;2024-03-17T05:24:37;5.60;99.90
7648;DHT22;3866;48.020;11.720;2024-03-17T05:27:04;5.60;99.90
7648;DHT22;3866;48.020;11.720;2024-03-17T05:29:31;5.60;99.90
7648;DHT22;3866;48.020;11.720;2024-03-17T05:32:00;5.60;99.90
7648;DHT22;3866;48.020;11.720;2024-03-17T05:34:28;5.60;99.90
7648;DHT22;3866;48.020;11.720;2024-03-17T05:36:54;5.70;99.90
7648;DHT22;3866;48.020;11.720;2024-03-17T05:39:21;5.80;99.90
7648;DHT22;3866;48.020;11.720;2024-03-17T05:41:48;5.90;99.90
7648;DHT22;3866;48.020;11.720;2024-03-17T05:44:18;5.80;99.90
7648;DHT22;3866;48.020;11.720;2024-03-17T05:46:45;5.80;99.90
7648;DHT22;3866;48.020;11.720;2024-03-17T05:49:14;5.80;99.90
7648;DHT22;3866;48.020;11.720;2024-03-17T05:51:40;5.70;99.90
7648;DHT22;3866;48.020;11.720;2024-03-17T05:54:07;5.70;99.90
7648;DHT22;3866;48.020;11.720;2024-03-17T05:56:34;5.60;99.90
7648;DHT22;3866;48.020;11.720;2024-03-17T05:59:01;5.70;99.90
7648;DHT22;3866;48.020;11.720;2024-03-17T06:01:28;5.70;99.90
7648;DHT22;3866;48.020;11.720;2024-03-17T06:03:55;5.80;99.90
7648;DHT22;3866;48.020;11.720;2024-03-17T06:06:23;5.90;99.90
7648;DHT22;3866;48.020;11.720;2024-03-17T06:08:50;5.90;99.90
7648;DHT22;3866;48.020;11.720;2024-03-17T06:11:17;6.00;99.90
7648;DHT22;3866;48.020;11.720;2024-03-17T06:13:44;6.10;99.90
7648;DHT22;3866;48.020;11.720;2024-03-17T06:16:11;6.30;99.90
7648;DHT22;3866;48.020;11.720;2024-03-17T06:18:38;6.60;99.90
7648;DHT22;3866;48.020;11.720;2024-03-17T06:21:05;6.80;99.90
7648;DHT22;3866;48.020;11.720;2024-03-17T06:23:36;6.90;99.90
7648;DHT22;3866;48.020;11.720;2024-03-17T06:26:03;6.80;99.90
7648;DHT22;3866;48.020;11.720;2024-03-17T06:28:31;7.20;99.90
7648;DHT22;3866;48.020;11.720;2024-03-17T06:30:58;7.30;99.90
7648;DHT22;3866;48.020;11.720;2024-03-17T06:33:27;7.20;99.90
7648;DHT22;3866;48.020;11.720;2024-03-17T06:35:54;6.90;99.90
7648;DHT22;3866;48.020;11.720;2024-03-17T06:38:22;7.20;99.90
7648;DHT22;3866;48.020;11.720;2024-03-17T06:40:53;7.80;99.90
7648;DHT22;3866;48.020;11.720;2024-03-17T06:43:20;8.90;99.90
7648;DHT22;3866;48.020;11.720;2024-03-17T06:45:56;10.50;99.90
7648;DHT22;3866;48.020;11.720;2024-03-17T06:48:24;10.40;99.90
7648;DHT22;3866;48.020;11.720;2024-03-17T06:50:51;12.20;99.90
7648;DHT22;3866;48.020;11.720;2024-03-17T06:53:20;13.80;99.90
7648;DHT22;3866;48.020;11.720;2024-03-17T06:55:54;14.70;99.90
7648;DHT22;3866;48.020;11.720;2024-03-17T06:58:21;14.80;99.90
7648;DHT22;3866;48.020;11.720;2024-03-17T07:00:55;15.30;99.90
7648;DHT22;3866;48.020;11.720;2024-03-17T07:03:25;16.10;99.90
7648;DHT22;3866;48.020;11.720;2024-03-17T07:05:53;15.90;99.90
7648;DHT22;3866;48.020;11.720;2024-03-17T07:08:22;16.10;99.90
7648;DHT22;3866;48.020;11.720;2024-03-17T07:10:58;15.00;99.90
7648;DHT22;3866;48.020;11.720;2024-03-17T07:13:25;16.30;99.90
7648;DHT22;3866;48.020;11.720;2024-03-17T07:15:52;14.00;99.90
7648;DHT22;3866;48.020;11.720;2024-03-17T07:18:19;13.90;99.90
7648;DHT22;3866;48.020;11.720;2024-03-17T07:20:45;15.10;99.90
7648;DHT22;3866;48.020;11.720;2024-03-17T07:23:13;16.70;99.90
7648;DHT22;3866;48.020;11.720;2024-03-17T07:25:41;16.80;99.90
7648;DHT22;3866;48.020;11.720;2024-03-17T07:28:09;17.60;99.90
7648;DHT22;3866;48.020;11.720;2024-03-17T07:30:36;14.90;99.90
7648;DHT22;3866;48.020;11.720;2024-03-17T07:33:03;14.20;99.90
7648;DHT22;3866;48.020;11.720;2024-03-17T07:35:30;14.70;99.90
7648;DHT22;3866;48.020;11.720;2024-03-17T07:37:57;16.40;99.90
7648;DHT22;3866;48.020;11.720;2024-03-17T07:40:24;17.10;99.90
7648;DHT22;3866;48.020;11.720;2024-03-17T07:42:51;16.30;99.90
7648;DHT22;3866;48.020;11.720;2024-03-17T07:45:20;17.00;99.90
7648;DHT22;3866;48.020;11.720;2024-03-17T07:47:50;17.90;99.90
7648;DHT22;3866;48.020;11.720;2024-03-17T07:50:16;16.90;99.90
7648;DHT22;3866;48.020;11.720;2024-03-17T07:52:43;16.40;99.90
7648;DHT22;3866;48.020;11.720;2024-03-17T07:55:11;17.40;99.90
7648;DHT22;3866;48.020;11.720;2024-03-17T07:57:38;18.60;99.90
7648;DHT22;3866;48.020;11.720;2024-03-17T08:00:07;17.50;99.90
7648;DHT22;3866;48.020;11.720;2024-03-17T08:02:44;19.10;99.90
7648;DHT22;3866;48.020;11.720;2024-03-17T08:05:11;17.90;99.90
7648;DHT22;3866;48.020;11.720;2024-03-17T08:07:39;17.00;99.90
7648;DHT22;3866;48.020;11.720;2024-03-17T08:10:07;16.90;99.90
7648;DHT22;3866;48.020;11.720;2024-03-17T08:12:34;16.10;99.90
7648;DHT22;3866;48.020;11.720;2024-03-17T08:15:01;18.20;99.90
7648;DHT22;3866;48.020;11.720;2024-03-17T08:17:28;18.50;99.90
7648;DHT22;3866;48.020;11.720;2024-03-17T08:19:56;19.20;99.90
7648;DHT22;3866;48.020;11.720;2024-03-17T08:22:23;17.10;99.90
7648;DHT22;3866;48.020;11.720;2024-03-17T08:24:50;18.60;99.90
7648;DHT22;3866;48.020;11.720;2024-03-17T08:27:17;16.90;99.90
7648;DHT22;3866;48.020;11.720;2024-03-17T08:29:43;18.40;99.90
7648;DHT22;3866;48.020;11.720;2024-03-17T08:32:10;18.20;99.90
7648;DHT22;3866;48.020;11.720;2024-03-17T08:34:37;18.00;99.90
7648;DHT22;3866;48.020;11.720;2024-03-17T08:37:05;18.30;99.90
7648;DHT22;3866;48.020;11.720;2024-03-17T08:39:34;18.90;99.90
7648;DHT22;3866;48.020;11.720;2024-03-17T08:42:01;16.90;99.90
7648;DHT22;3866;48.020;11.720;2024-03-17T08:44:28;15.80;99.90
7648;DHT22;3866;48.020;11.720;2024-03-17T08:46:54;14.70;99.90
7648;DHT22;3866;48.020;11.720;2024-03-17T08:49:22;12.70;99.90
7648;DHT22;3866;48.020;11.720;2024-03-17T08:51:49;11.60;99.90
7648;DHT22;3866;48.020;11.720;2024-03-17T08:54:17;12.10;99.90
7648;DHT22;3866;48.020;11.720;2024-03-17T08:56:44;12.30;99.90
7648;DHT22;3866;48.020;11.720;2024-03-17T08:59:12;13.10;99.90
7648;DHT22;3866;48.020;11.720;2024-03-17T09:01:39;12.70;99.90
7648;DHT22;3866;48.020;11.720;2024-03-17T09:04:06;12.80;99.90
7648;DHT22;3866;48.020;11.720;2024-03-17T09:06:33;11.60;99.90
7648;DHT22;3866;48.020;11.720;2024-03-17T09:09:01;11.20;99.90
7648;DHT22;3866;48.020;11.720;2024-03-17T09:11:30;11.30;99.90
7648;DHT22;3866;48.020;11.720;2024-03-17T09:13:56;12.60;99.90
7648;DHT22;3866;48.020;11.720;2024-03-17T09:16:24;14.30;99.90
7648;DHT22;3866;48.020;11.720;2024-03-17T09:18:51;14.20;99.90
7648;DHT22;3866;48.020;11.720;2024-03-17T09:21:18;13.50;99.90
7648;DHT22;3866;48.020;11.720;2024-03-17T09:23:45;12.80;99.90
7648;DHT22;3866;48.020;11.720;2024-03-17T09:26:12;13.70;99.90
7648;DHT22;3866;48.020;11.720;2024-03-17T09:28:43;13.80;99.90
7648;DHT22;3866;48.020;11.720;2024-03-17T09:31:10;12.60;99.90
7648;DHT22;3866;48.020;11.720;2024-03-17T09:33:38;12.30;99.90
7648;DHT22;3866;48.020;11.720;2024-03-17T09:36:06;12.80;99.90
7648;DHT22;3866;48.020;11.720;2024-03-17T09:38:33;12.10;99.90
7648;DHT22;3866;48.020;11.720;2024-03-17T09:41:01;12.80;99.90
7648;DHT22;3866;48.020;11.720;2024-03-17T09:43:29;13.20;99.90
7648;DHT22;3866;48.020;11.720;2024-03-17T09:45:57;13.70;99.90
7648;DHT22;3866;48.020;11.720;2024-03-17T09:48:25;13.20;99.90
7648;DHT22;3866;48.020;11.720;2024-03-17T09:50:54;12.90;99.90
7648;DHT22;3866;48.020;11.720;2024-03-17T09:53:23;13.10;99.90
7648;DHT22;3866;48.020;11.720;2024-03-17T09:55:51;12.40;99.90
7648;DHT22;3866;48.020;11.720;2024-03-17T09:58:19;12.00;99.90
7648;DHT22;3866;48.020;11.720;2024-03-17T10:00:46;12.10;99.90
7648;DHT22;3866;48.020;11.720;2024-03-17T10:03:39;12.70;99.90
7648;DHT22;3866;48.020;11.720;2024-03-17T10:06:07;12.70;99.90
7648;DHT22;3866;48.020;11.720;2024-03-17T10:08:43;12.20;99.90
7648;DHT22;3866;48.020;11.720;2024-03-17T10:11:10;13.00;99.90
7648;DHT22;3866;48.020;11.720;2024-03-17T10:13:38;13.30;99.90
7648;DHT22;3866;48.020;11.720;2024-03-17T10:16:05;13.10;99.90
7648;DHT22;3866;48.020;11.720;2024-03-17T10:18:33;13.20;99.90
7648;DHT22;3866;48.020;11.720;2024-03-17T10:21:00;13.70;99.90
7648;DHT22;3866;48.020;11.720;2024-03-17T10:23:27;13.40;99.90
7648;DHT22;3866;48.020;11.720;2024-03-17T10:25:54;12.90;99.90
7648;DHT22;3866;48.020;11.720;2024-03-17T10:28:21;12.70;99.90
7648;DHT22;3866;48.020;11.720;2024-03-17T10:30:58;12.50;99.90
7648;DHT22;3866;48.020;11.720;2024-03-17T10:33:26;12.40;99.90
7648;DHT22;3866;48.020;11.720;2024-03-17T10:36:01;12.30;99.90
7648;DHT22;3866;48.020;11.720;2024-03-17T10:38:31;12.20;99.90
7648;DHT22;3866;48.020;11.720;2024-03-17T10:41:01;12.30;99.90
7648;DHT22;3866;48.020;11.720;2024-03-17T10:43:28;12.40;99.90
7648;DHT22;3866;48.020;11.720;2024-03-17T10:45:57;12.70;99.90
7648;DHT22;3866;48.020;11.720;2024-03-17T10:48:30;13.20;99.90
7648;DHT22;3866;48.020;11.720;2024-03-17T10:51:01;13.20;99.90
7648;DHT22;3866;48.020;11.720;2024-03-17T10:53:29;12.80;99.90
7648;DHT22;3866;48.020;11.720;2024-03-17T10:56:04;12.90;99.90
7648;DHT22;3866;48.020;11.720;2024-03-17T10:58:35;13.00;99.90
7648;DHT22;3866;48.020;11.720;2024-03-17T11:01:03;13.40;99.90
7648;DHT22;3866;48.020;11.720;2024-03-17T11:03:32;13.60;99.90
7648;DHT22;3866;48.020;11.720;2024-03-17T11:06:03;13.40;99.90
7648;DHT22;3866;48.020;11.720;2024-03-17T11:08:31;13.40;99.90
7648;DHT22;3866;48.020;11.720;2024-03-17T11:10:59;13.80;99.90
7648;DHT22;3866;48.020;11.720;2024-03-17T11:13:27;14.00;99.90
7648;DHT22;3866;48.020;11.720;2024-03-17T11:15:55;14.10;99.90
7648;DHT22;3866;48.020;11.720;2024-03-17T11:18:35;14.60;99.90
7648;DHT22;3866;48.020;11.720;2024-03-17T11:21:06;14.30;99.90
7648;DHT22;3866;48.020;11.720;2024-03-17T11:23:41;14.50;99.90
7648;DHT22;3866;48.020;11.720;2024-03-17T11:26:08;13.90;99.90
7648;DHT22;3866;48.020;11.720;2024-03-17T11:28:53;14.20;99.90
7648;DHT22;3866;48.020;11.720;2024-03-17T11:31:41;14.60;99.90
7648;DHT22;3866;48.020;11.720;2024-03-17T11:34:29;14.60;99.90
7648;DHT22;3866;48.020;11.720;2024-03-17T11:36:58;14.70;99.90
7648;DHT22;3866;48.020;11.720;2024-03-17T11:39:47;14.70;99.90
7648;DHT22;3866;48.020;11.720;2024-03-17T11:42:17;14.60;99.90
7648;DHT22;3866;48.020;11.720;2024-03-17T11:44:43;14.70;99.90
7648;DHT22;3866;48.020;11.720;2024-03-17T11:47:11;14.90;99.90
7648;DHT22;3866;48.020;11.720;2024-03-17T11:49:37;15.00;99.90
7648;DHT22;3866;48.020;11.720;2024-03-17T11:52:11;14.90;99.90
7648;DHT22;3866;48.020;11.720;2024-03-17T11:54:39;14.40;99.90
7648;DHT22;3866;48.020;11.720;2024-03-17T11:57:07;15.00;99.90
7648;DHT22;3866;48.020;11.720;2024-03-17T11:59:34;15.20;99.90
7648;DHT22;3866;48.020;11.720;2024-03-17T12:02:02;15.10;99.90
7648;DHT22;3866;48.020;11.720;2024-03-17T12:04:39;15.30;99.90
7648;DHT22;3866;48.020;11.720;2024-03-17T12:07:12;15.40;99.90
7648;DHT22;3866;48.020;11.720;2024-03-17T12:09:38;16.10;99.90
7648;DHT22;3866;48.020;11.720;2024-03-17T12:12:09;16.50;99.90
7648;DHT22;3866;48.020;11.720;2024-03-17T12:14:36;16.90;99.90
7648;DHT22;3866;48.020;11.720;2024-03-17T12:17:05;16.50;99.90
7648;DHT22;3866;48.020;11.720;2024-03-17T12:19:33;16.00;99.90
7648;DHT22;3866;48.020;11.720;2024-03-17T12:22:01;16.00;99.90
7648;DHT22;3866;48.020;11.720;2024-03-17T12:24:30;16.00;99.90
7648;DHT22;3866;48.020;11.720;2024-03-17T12:26:58;15.40;99.90
7648;DHT22;3866;48.020;11.720;2024-03-17T12:29:30;15.60;99.90
7648;DHT22;3866;48.020;11.720;2024-03-17T12:31:59;15.30;99.90
7648;DHT22;3866;48.020;11.720;2024-03-17T12:34:26;14.60;99.90
7648;DHT22;3866;48.020;11.720;2024-03-17T12:36:54;14.30;99.90
7648;DHT22;3866;48.020;11.720;2024-03-17T12:39:21;14.70;99.90
7648;DHT22;3866;48.020;11.720;2024-03-17T12:42:03;15.20;99.90
7648;DHT22;3866;48.020;11.720;2024-03-17T12:44:29;15.20;99.90
7648;DHT22;3866;48.020;11.720;2024-03-17T12:46:57;14.90;99.90
7648;DHT22;3866;48.020;11.720;2024-03-17T12:49:23;14.40;99.90
7648;DHT22;3866;48.020;11.720;2024-03-17T12:51:53;14.20;99.90
7648;DHT22;3866;48.020;11.720;2024-03-17T12:54:24;14.50;99.90
7648;DHT22;3866;48.020;11.720;2024-03-17T12:56:51;14.80;99.90
7648;DHT22;3866;48.020;11.720;2024-03-17T12:59:41;15.10;99.90
7648;DHT22;3866;48.020;11.720;2024-03-17T13:02:26;15.30;99.90
7648;DHT22;3866;48.020;11.720;2024-03-17T13:05:21;15.10;99.90
7648;DHT22;3866;48.020;11.720;2024-03-17T13:07:49;15.20;99.90
7648;DHT22;3866;48.020;11.720;2024-03-17T13:10:17;15.10;99.90
7648;DHT22;3866;48.020;11.720;2024-03-17T13:12:45;15.10;99.90
7648;DHT22;3866;48.020;11.720;2024-03-17T13:15:15;15.10;99.90
7648;DHT22;3866;48.020;11.720;2024-03-17T13:17:42;15.20;99.90
7648;DHT22;3866;48.020;11.720;2024-03-17T13:20:12;15.20;99.90
7648;DHT22;3866;48.020;11.720;2024-03-17T13:22:40;14.90;99.90
7648;DHT22;3866;48.020;11.720;2024-03-17T13:25:14;15.00;99.90
7648;DHT22;3866;48.020;11.720;2024-03-17T13:27:43;15.00;99.90
7648;DHT22;3866;48.020;11.720;2024-03-17T13:30:11;14.90;99.90
7648;DHT22;3866;48.020;11.720;2024-03-17T13:32:40;14.70;99.90
7648;DHT22;3866;48.020;11.720;2024-03-17T13:35:14;14.70;99.90
7648;DHT22;3866;48.020;11.720;2024-03-17T13:37:41;14.80;99.90
7648;DHT22;3866;48.020;11.720;2024-03-17T13:40:09;14.90;99.90
7648;DHT22;3866;48.020;11.720;2024-03-17T13:42:38;15.20;99.90
7648;DHT22;3866;48.020;11.720;2024-03-17T13:45:05;15.10;99.90
7648;DHT22;3866;48.020;11.720;2024-03-17T13:47:36;15.20;99.90
7648;DHT22;3866;48.020;11.720;2024-03-17T13:50:05;15.20;99.90
7648;DHT22;3866;48.020;11.720;2024-03-17T13:52:36;15.30;99.90
7648;DHT22;3866;48.020;11.720;2024-03-17T13:55:04;15.20;99.90
7648;DHT22;3866;48.020;11.720;2024-03-17T13:57:32;15.40;99.90
7648;DHT22;3866;48.020;11.720;2024-03-17T13:59:59;15.50;99.90
7648;DHT22;3866;48.020;11.720;2024-03-17T14:02:26;15.30;99.90
7648;DHT22;3866;48.020;11.720;2024-03-17T14:04:52;15.20;99.90
7648;DHT22;3866;48.020;11.720;2024-03-17T14:07:21;15.20;99.90
7648;DHT22;3866;48.020;11.720;2024-03-17T14:09:47;15.10;99.90
7648;DHT22;3866;48.020;11.720;2024-03-17T14:12:13;15.10;99.90
7648;DHT22;3866;48.020;11.720;2024-03-17T14:14:40;15.30;99.90
7648;DHT22;3866;48.020;11.720;2024-03-17T14:17:07;15.20;99.90
7648;DHT22;3866;48.020;11.720;2024-03-17T14:19:34;14.70;99.90
7648;DHT22;3866;48.020;11.720;2024-03-17T14:22:01;14.70;99.90
7648;DHT22;3866;48.020;11.720;2024-03-17T14:24:29;14.80;99.90
7648;DHT22;3866;48.020;11.720;2024-03-17T14:26:56;14.80;99.90
7648;DHT22;3866;48.020;11.720;2024-03-17T14:29:23;14.70;99.90
7648;DHT22;3866;48.020;11.720;2024-03-17T14:31:50;14.40;99.90
7648;DHT22;3866;48.020;11.720;2024-03-17T14:34:17;14.20;99.90
7648;DHT22;3866;48.020;11.720;2024-03-17T14:36:43;14.20;99.90
7648;DHT22;3866;48.020;11.720;2024-03-17T14:39:10;14.20;99.90
7648;DHT22;3866;48.020;11.720;2024-03-17T14:41:38;14.20;99.90
7648;DHT22;3866;48.020;11.720;2024-03-17T14:44:05;14.50;99.90
7648;DHT22;3866;48.020;11.720;2024-03-17T14:46:31;14.20;99.90
7648;DHT22;3866;48.020;11.720;2024-03-17T14:48:58;14.10;99.90
7648;DHT22;3866;48.020;11.720;2024-03-17T14:51:25;13.80;99.90
7648;DHT22;3866;48.020;11.720;2024-03-17T14:53:53;13.90;99.90
7648;DHT22;3866;48.020;11.720;2024-03-17T14:56:21;13.80;99.90
7648;DHT22;3866;48.020;11.720;2024-03-17T14:58:49;13.90;99.90
7648;DHT22;3866;48.020;11.720;2024-03-17T15:01:16;13.90;99.90
7648;DHT22;3866;48.020;11.720;2024-03-17T15:03:44;13.80;99.90
7648;DHT22;3866;48.020;11.720;2024-03-17T15:06:12;13.80;99.90
7648;DHT22;3866;48.020;11.720;2024-03-17T15:08:40;13.80;99.90
7648;DHT22;3866;48.020;11.720;2024-03-17T15:11:07;13.90;99.90
7648;DHT22;3866;48.020;11.720;2024-03-17T15:13:35;13.80;99.90
7648;DHT22;3866;48.020;11.720;2024-03-17T15:16:04;13.90;99.90
7648;DHT22;3866;48.020;11.720;2024-03-17T15:18:31;13.80;99.90
7648;DHT22;3866;48.020;11.720;2024-03-17T15:20:59;13.80;99.90
7648;DHT22;3866;48.020;11.720;2024-03-17T15:23:26;13.80;99.90
7648;DHT22;3866;48.020;11.720;2024-03-17T15:26:01;13.70;99.90
7648;DHT22;3866;48.020;11.720;2024-03-17T15:28:33;13.90;99.90
7648;DHT22;3866;48.020;11.720;2024-03-17T15:31:03;13.70;99.90
7648;DHT22;3866;48.020;11.720;2024-03-17T15:33:31;13.60;99.90
7648;DHT22;3866;48.020;11.720;2024-03-17T15:36:00;13.60;99.90
7648;DHT22;3866;48.020;11.720;2024-03-17T15:38:27;13.50;99.90
7648;DHT22;3866;48.020;11.720;2024-03-17T15:40:54;13.50;99.90
7648;DHT22;3866;48.020;11.720;2024-03-17T15:43:21;13.40;99.90
7648;DHT22;3866;48.020;11.720;2024-03-17T15:45:47;13.40;99.90
7648;DHT22;3866;48.020;11.720;2024-03-17T15:48:16;13.30;99.90
7648;DHT22;3866;48.020;11.720;2024-03-17T15:50:43;13.40;99.90
7648;DHT22;3866;48.020;11.720;2024-03-17T15:53:10;13.40;99.90
7648;DHT22;3866;48.020;11.720;2024-03-17T15:55:37;13.40;99.90
7648;DHT22;3866;48.020;11.720;2024-03-17T15:58:04;13.20;99.90